Time;durP1;ratioP1;P1;durP2;ratioP2;P2;SDS_P1;SDS_P2;PMS_P1;PMS_P2;Temp;Humidity;BMP_temperature;BMP_pressure;BME280_temperature;BME280_humidity;BME280_pressure;Samples;Min_cycle;Max_cycle;Signal;HPM_P1;HPM_P2
2021/11/10 00:01:26;;;;;;;17.02;7.55;;;11.40;55.60;;;;;;6257118;28;20036;-74
2021/11/10 00:04:27;;;;;;;17.23;7.65;;;11.40;55.60;;;;;;6256633;28;20025;-74
2021/11/10 00:07:28;;;;;;;17.98;7.90;;;11.40;55.50;;;;;;6258754;28;20033;-74
2021/11/10 00:10:29;;;;;;;23.83;8.55;;;11.40;55.50;;;;;;6239636;28;20045;-74
2021/11/10 00:13:30;;;;;;;17.77;8.25;;;11.40;55.50;;;;;;6260511;28;20021;-74
2021/11/10 00:16:31;;;;;;;19.13;7.65;;;11.40;55.40;;;;;;6260880;28;20120;-75
2021/11/10 00:19:32;;;;;;;15.35;7.05;;;11.40;55.40;;;;;;6244532;28;20033;-75
2021/11/10 00:22:34;;;;;;;17.25;8.07;;;11.40;55.40;;;;;;6261141;28;20037;-75
2021/11/10 00:25:35;;;;;;;21.38;8.07;;;11.40;55.40;;;;;;6254980;28;20063;-75
2021/11/10 00:28:35;;;;;;;17.42;7.65;;;11.40;55.30;;;;;;6243084;28;20033;-74
2021/11/10 00:31:36;;;;;;;16.45;7.88;;;11.40;55.30;;;;;;6260756;28;20044;-75
2021/11/10 00:34:37;;;;;;;13.00;7.25;;;11.40;55.30;;;;;;6253742;28;20592;-74
2021/11/10 00:37:39;;;;;;;27.63;8.18;;;11.30;55.40;;;;;;6246877;28;20040;-75
2021/11/10 00:40:39;;;;;;;15.63;7.80;;;11.30;55.40;;;;;;6251162;28;20036;-75
2021/11/10 00:43:40;;;;;;;20.38;8.98;;;11.30;55.50;;;;;;6250696;28;20036;-75
2021/11/10 00:46:41;;;;;;;17.30;8.68;;;11.30;55.60;;;;;;6259969;28;20158;-74
2021/11/10 00:49:43;;;;;;;16.75;8.40;;;11.20;55.60;;;;;;6239504;28;20032;-75
2021/11/10 00:52:44;;;;;;;18.48;7.35;;;11.20;55.70;;;;;;6256753;28;20040;-76
2021/11/10 00:55:46;;;;;;;18.85;8.40;;;11.20;55.70;;;;;;6259078;28;20139;-75
2021/11/10 00:58:46;;;;;;;18.55;7.72;;;11.20;55.70;;;;;;6254693;28;21256;-75
2021/11/10 01:01:50;;;;;;;22.48;8.90;;;11.30;55.70;;;;;;6260502;28;20659;-74
2021/11/10 01:04:52;;;;;;;19.60;9.02;;;11.30;55.60;;;;;;6244606;28;20116;-75
2021/11/10 01:07:53;;;;;;;18.80;8.50;;;11.30;55.50;;;;;;6268235;28;20037;-75
2021/11/10 01:10:56;;;;;;;20.58;9.13;;;11.40;55.40;;;;;;6266974;28;20040;-75
2021/11/10 01:13:57;;;;;;;21.90;8.82;;;11.40;55.40;;;;;;6247987;28;20035;-75
2021/11/10 01:16:58;;;;;;;18.77;8.60;;;11.40;55.30;;;;;;6256708;28;20075;-75
2021/11/10 01:19:59;;;;;;;16.17;8.23;;;11.40;55.30;;;;;;6259993;28;20025;-75
2021/11/10 01:23:05;;;;;;;20.48;7.68;;;11.40;55.30;;;;;;6254119;28;20425;-75
2021/11/10 01:26:07;;;;;;;15.88;8.00;;;11.40;55.40;;;;;;6262176;28;20032;-75
2021/11/10 01:29:10;;;;;;;15.85;8.13;;;11.30;55.40;;;;;;6251180;28;20108;-75
2021/11/10 01:32:12;;;;;;;15.85;8.23;;;11.40;55.50;;;;;;6254104;28;20039;-74
2021/11/10 01:35:15;;;;;;;19.90;7.88;;;11.30;55.50;;;;;;6251472;28;20986;-75
2021/11/10 01:38:17;;;;;;;24.48;7.70;;;11.40;55.40;;;;;;6244392;28;20082;-75
2021/11/10 01:41:18;;;;;;;16.58;7.88;;;11.40;55.40;;;;;;6245761;28;20028;-75
2021/11/10 01:44:25;;;;;;;19.17;8.70;;;11.40;55.40;;;;;;6253666;28;20024;-75
2021/11/10 01:47:28;;;;;;;20.88;9.18;;;11.40;55.40;;;;;;6252669;28;20021;-75
2021/11/10 01:50:34;;;;;;;17.55;7.80;;;11.40;55.40;;;;;;6243918;28;20029;-75
2021/11/10 01:53:36;;;;;;;15.80;7.40;;;11.50;55.50;;;;;;6257026;28;20032;-75
2021/11/10 01:56:41;;;;;;;15.30;8.00;;;11.40;55.50;;;;;;6262064;28;20099;-75
2021/11/10 02:00:00;;;;;;;17.33;7.78;;;11.40;55.60;;;;;;6260094;28;20503;-75
2021/11/10 02:03:02;;;;;;;20.98;8.65;;;11.40;55.70;;;;;;6243575;28;20327;-75
2021/11/10 02:06:28;;;;;;;15.15;7.88;;;11.30;55.70;;;;;;6267258;28;20465;-75
2021/11/10 02:09:54;;;;;;;16.63;8.63;;;11.40;55.70;;;;;;6255955;28;20424;-75
2021/11/10 02:12:57;;;;;;;18.55;7.50;;;11.30;55.60;;;;;;6253149;28;20017;-74
2021/11/10 02:16:00;;;;;;;27.60;8.90;;;11.30;55.80;;;;;;6273419;28;20021;-74
2021/11/10 02:19:05;;;;;;;32.53;9.55;;;11.20;56.00;;;;;;6267544;28;20033;-75
2021/11/10 02:22:07;;;;;;;14.75;7.50;;;11.10;56.30;;;;;;6272341;28;20029;-75
2021/11/10 02:25:10;;;;;;;28.50;8.38;;;11.10;56.40;;;;;;6270860;28;20033;-75
2021/11/10 02:28:11;;;;;;;15.75;7.85;;;11.10;56.50;;;;;;6268311;28;20037;-75
2021/11/10 02:31:12;;;;;;;19.98;8.52;;;11.10;56.50;;;;;;6267774;28;20111;-74
2021/11/10 02:34:13;;;;;;;21.00;8.43;;;11.10;56.50;;;;;;6266816;28;20024;-75
2021/11/10 02:37:18;;;;;;;15.20;7.47;;;11.10;56.50;;;;;;6272745;28;20096;-74
2021/11/10 02:40:19;;;;;;;17.25;8.15;;;11.10;56.50;;;;;;6256951;28;20037;-74
2021/11/10 02:43:20;;;;;;;19.73;7.68;;;11.10;56.50;;;;;;6267785;28;20365;-75
2021/11/10 02:46:23;;;;;;;12.70;6.78;;;11.00;56.60;;;;;;6265903;28;20031;-75
2021/11/10 02:49:24;;;;;;;16.95;8.50;;;11.00;56.70;;;;;;6267025;28;20029;-75
2021/11/10 02:52:49;;;;;;;18.75;8.40;;;10.90;56.80;;;;;;6268975;28;20434;-75
2021/11/10 02:55:53;;;;;;;15.20;7.50;;;10.90;56.80;;;;;;6269573;28;20053;-75
2021/11/10 02:58:54;;;;;;;14.82;7.85;;;10.90;56.90;;;;;;6268011;28;20029;-75
2021/11/10 03:01:55;;;;;;;17.45;7.63;;;10.90;56.90;;;;;;6267270;28;20083;-75
2021/11/10 03:04:57;;;;;;;20.35;8.65;;;10.80;57.00;;;;;;6264801;28;20100;-74
2021/11/10 03:07:59;;;;;;;16.50;8.32;;;10.80;57.10;;;;;;6266032;28;20112;-74
2021/11/10 03:11:00;;;;;;;19.77;7.68;;;10.80;57.20;;;;;;6273374;28;20029;-74
2021/11/10 03:14:06;;;;;;;17.08;8.38;;;10.70;57.30;;;;;;6262575;28;20369;-75
2021/11/10 03:17:10;;;;;;;19.23;7.88;;;10.70;57.30;;;;;;6263186;28;20053;-74
2021/11/10 03:20:12;;;;;;;17.23;8.32;;;10.80;57.40;;;;;;6254234;28;20025;-74
2021/11/10 03:23:16;;;;;;;16.35;7.95;;;10.80;57.20;;;;;;6270149;28;20021;-75
2021/11/10 03:26:22;;;;;;;12.15;7.45;;;10.90;57.20;;;;;;6269568;28;20484;-75
2021/11/10 03:29:23;;;;;;;18.60;8.40;;;10.90;57.10;;;;;;6267190;28;20053;-74
2021/11/10 03:32:26;;;;;;;15.60;8.48;;;10.90;57.00;;;;;;6269735;28;20048;-75
2021/11/10 03:35:29;;;;;;;19.58;8.50;;;10.90;56.90;;;;;;6266129;28;20094;-74
2021/11/10 03:38:33;;;;;;;17.02;8.05;;;10.90;56.90;;;;;;6275685;28;20049;-76
2021/11/10 03:41:34;;;;;;;22.80;8.30;;;10.90;56.90;;;;;;6273764;28;20059;-76
2021/11/10 03:44:36;;;;;;;17.50;8.93;;;10.90;57.00;;;;;;6273472;28;20039;-75
2021/11/10 03:47:38;;;;;;;18.92;8.80;;;10.90;56.90;;;;;;6262842;28;20033;-75
2021/11/10 03:50:40;;;;;;;21.40;7.60;;;10.90;57.00;;;;;;6248175;28;20040;-75
2021/11/10 03:53:41;;;;;;;18.13;8.18;;;10.80;57.00;;;;;;6256868;28;20947;-75
2021/11/10 03:56:42;;;;;;;15.90;9.15;;;10.80;57.10;;;;;;6260239;28;20266;-75
2021/11/10 03:59:44;;;;;;;15.60;7.70;;;10.70;57.20;;;;;;6246075;28;20327;-74
2021/11/10 04:02:46;;;;;;;24.13;9.18;;;10.70;57.30;;;;;;6255083;28;20032;-75
2021/11/10 04:05:58;;;;;;;17.75;8.60;;;10.70;57.40;;;;;;6263395;28;20033;-74
2021/11/10 04:08:59;;;;;;;20.30;9.25;;;10.70;57.50;;;;;;6261964;28;20123;-74
2021/11/10 04:12:02;;;;;;;20.20;9.13;;;10.60;57.40;;;;;;6251612;28;20025;-74
2021/11/10 04:15:06;;;;;;;17.67;8.40;;;10.60;57.50;;;;;;6238546;28;20029;-74
2021/11/10 04:18:07;;;;;;;17.88;9.63;;;10.60;57.50;;;;;;6257730;28;20174;-75
2021/11/10 04:21:09;;;;;;;25.48;8.25;;;10.60;57.60;;;;;;6257999;28;20037;-74
2021/11/10 04:24:11;;;;;;;20.98;8.70;;;10.50;57.70;;;;;;6257497;28;20083;-75
2021/11/10 04:27:12;;;;;;;20.55;8.93;;;10.50;57.70;;;;;;6261001;28;20038;-75
2021/11/10 04:30:15;;;;;;;18.33;7.38;;;10.50;57.80;;;;;;6255592;28;20075;-74
2021/11/10 04:33:16;;;;;;;17.40;7.90;;;10.50;57.80;;;;;;6244675;28;20029;-74
2021/11/10 04:36:19;;;;;;;17.98;7.82;;;10.50;57.80;;;;;;6255362;28;20116;-74
2021/11/10 04:39:24;;;;;;;14.38;7.07;;;10.50;57.80;;;;;;6243914;28;20021;-74
2021/11/10 04:42:24;;;;;;;19.30;8.65;;;10.50;57.80;;;;;;6255987;28;20525;-74
2021/11/10 04:45:32;;;;;;;16.88;8.25;;;10.60;57.90;;;;;;6269087;28;20041;-74
2021/11/10 04:48:36;;;;;;;17.83;8.23;;;10.60;57.90;;;;;;6249460;28;20422;-75
2021/11/10 04:51:38;;;;;;;19.15;9.20;;;10.60;57.80;;;;;;6264304;28;20037;-74
2021/11/10 04:54:39;;;;;;;20.55;7.78;;;10.60;57.90;;;;;;6263021;28;20028;-76
2021/11/10 04:57:40;;;;;;;15.02;7.20;;;10.60;57.90;;;;;;6265400;28;20350;-74
2021/11/10 05:00:45;;;;;;;17.05;8.27;;;10.60;57.90;;;;;;6266252;28;20033;-76
2021/11/10 05:03:46;;;;;;;13.73;7.93;;;10.60;57.90;;;;;;6267147;28;20510;-75
2021/11/10 05:06:48;;;;;;;18.50;8.43;;;10.60;58.00;;;;;;6266566;28;20033;-74
2021/11/10 05:09:51;;;;;;;22.65;8.75;;;10.60;58.00;;;;;;6267238;28;20036;-74
2021/11/10 05:12:52;;;;;;;21.08;8.82;;;10.60;58.00;;;;;;6245705;28;20048;-75
2021/11/10 05:15:53;;;;;;;20.63;9.05;;;10.50;58.00;;;;;;6260424;28;20025;-75
2021/11/10 05:18:55;;;;;;;17.42;8.32;;;10.60;58.00;;;;;;6243466;28;20071;-74
2021/11/10 05:21:57;;;;;;;19.75;8.80;;;10.60;58.00;;;;;;6257087;28;20095;-74
2021/11/10 05:24:58;;;;;;;25.08;9.48;;;10.50;58.00;;;;;;6239451;28;20338;-74
2021/11/10 05:27:59;;;;;;;19.90;9.77;;;10.50;58.20;;;;;;6257803;28;20040;-75
2021/11/10 05:31:00;;;;;;;17.38;8.25;;;10.50;58.00;;;;;;6263560;28;20115;-74
2021/11/10 05:34:01;;;;;;;20.00;9.20;;;10.50;58.00;;;;;;6263700;28;20029;-74
2021/11/10 05:37:02;;;;;;;18.58;8.45;;;10.60;58.10;;;;;;6259458;28;20036;-75
2021/11/10 05:40:07;;;;;;;14.82;8.82;;;10.50;58.00;;;;;;6263954;28;20039;-75
2021/11/10 05:43:08;;;;;;;24.00;9.27;;;10.50;58.10;;;;;;6265135;28;20017;-75
2021/11/10 05:46:09;;;;;;;23.65;8.68;;;10.40;58.20;;;;;;6268490;28;20036;-75
2021/11/10 05:49:10;;;;;;;18.25;8.95;;;10.40;58.30;;;;;;6268393;28;20106;-75
2021/11/10 05:52:11;;;;;;;15.23;7.35;;;10.40;58.40;;;;;;6274800;28;20035;-77
2021/11/10 05:55:15;;;;;;;14.75;8.00;;;10.40;58.50;;;;;;6270564;28;20410;-74
2021/11/10 05:58:16;;;;;;;27.15;10.20;;;10.30;58.60;;;;;;6249548;28;20024;-75
2021/11/10 06:01:17;;;;;;;20.42;9.32;;;10.20;58.70;;;;;;6273500;28;20508;-75
2021/11/10 06:04:18;;;;;;;18.55;7.65;;;10.20;58.80;;;;;;6255809;28;20125;-75
2021/11/10 06:07:19;;;;;;;33.33;9.00;;;10.20;58.90;;;;;;6273900;28;20037;-75
2021/11/10 06:10:21;;;;;;;17.30;8.88;;;10.20;59.00;;;;;;6272981;28;20028;-74
2021/11/10 06:13:22;;;;;;;20.70;9.50;;;10.20;59.10;;;;;;6266834;28;20108;-75
2021/11/10 06:16:23;;;;;;;18.95;8.70;;;10.10;59.10;;;;;;6267184;28;20033;-74
2021/11/10 06:19:26;;;;;;;17.90;9.13;;;10.10;59.10;;;;;;6260545;28;20037;-74
2021/11/10 06:22:27;;;;;;;21.85;8.52;;;10.10;59.20;;;;;;6263552;28;20118;-75
2021/11/10 06:25:28;;;;;;;24.08;9.52;;;10.10;59.30;;;;;;6264542;28;20053;-75
2021/11/10 06:28:29;;;;;;;19.85;9.00;;;10.00;59.30;;;;;;6245819;28;20116;-76
2021/11/10 06:34:59;;;;;;;16.33;8.32;;;10.00;59.60;;;;;;6267212;28;20029;-73
2021/11/10 06:38:00;;;;;;;20.85;8.73;;;10.00;59.70;;;;;;6247064;28;20438;-71
2021/11/10 06:41:01;;;;;;;17.65;7.75;;;9.90;59.80;;;;;;6261507;28;20514;-77
2021/11/10 06:44:03;;;;;;;14.35;7.72;;;9.90;60.00;;;;;;6266323;28;20025;-75
2021/11/10 06:47:04;;;;;;;16.88;8.32;;;9.90;60.10;;;;;;6269964;28;20021;-75
2021/11/10 06:50:06;;;;;;;17.58;8.50;;;9.90;60.20;;;;;;6266845;28;20049;-74
2021/11/10 06:53:08;;;;;;;15.52;8.23;;;9.90;60.30;;;;;;6271785;28;20021;-76
2021/11/10 06:56:09;;;;;;;26.65;8.88;;;9.90;60.30;;;;;;6271072;28;20032;-75
2021/11/10 06:59:11;;;;;;;18.50;7.93;;;9.90;60.30;;;;;;6266957;28;20048;-74
2021/11/10 07:02:12;;;;;;;18.13;8.30;;;9.90;60.30;;;;;;6272541;28;20429;-75
2021/11/10 07:05:14;;;;;;;21.35;8.68;;;9.90;60.30;;;;;;6272430;28;20029;-74
2021/11/10 07:08:15;;;;;;;19.83;8.35;;;9.90;60.40;;;;;;6256351;28;20124;-76
2021/11/10 07:11:16;;;;;;;18.63;8.10;;;9.90;60.50;;;;;;6270924;28;20039;-75
2021/11/10 07:14:17;;;;;;;19.83;9.30;;;9.90;60.60;;;;;;6257275;28;20124;-74
2021/11/10 07:17:18;;;;;;;14.98;7.53;;;9.90;60.50;;;;;;6245227;28;20025;-77
2021/11/10 07:20:20;;;;;;;22.17;8.95;;;10.00;60.50;;;;;;6257323;28;20033;-74
2021/11/10 07:23:21;;;;;;;12.38;6.97;;;9.90;60.40;;;;;;6258030;28;20097;-75
2021/11/10 07:26:22;;;;;;;18.55;8.13;;;9.90;60.50;;;;;;6261239;28;20025;-75
2021/11/10 07:29:24;;;;;;;15.23;7.95;;;9.80;60.60;;;;;;6256383;28;20051;-75
2021/11/10 07:32:25;;;;;;;20.08;7.43;;;9.90;60.80;;;;;;6255832;28;20041;-76
2021/11/10 07:35:27;;;;;;;25.60;7.97;;;9.90;60.80;;;;;;6262363;28;20031;-75
2021/11/10 07:38:28;;;;;;;17.20;8.13;;;9.90;60.80;;;;;;6258313;28;20032;-75
2021/11/10 07:41:34;;;;;;;16.85;8.35;;;9.90;60.90;;;;;;6257614;28;20039;-74
2021/11/10 07:44:36;;;;;;;20.17;8.00;;;9.90;60.80;;;;;;6261656;28;20059;-74
2021/11/10 07:47:41;;;;;;;18.88;7.93;;;10.00;60.90;;;;;;6251172;28;20036;-75
2021/11/10 07:50:42;;;;;;;14.02;7.60;;;10.00;60.90;;;;;;6265440;28;20028;-74
2021/11/10 07:53:44;;;;;;;20.23;8.48;;;10.00;60.80;;;;;;6267216;28;20028;-75
2021/11/10 07:56:45;;;;;;;17.40;7.70;;;10.10;60.90;;;;;;6271698;28;20052;-75
2021/11/10 07:59:47;;;;;;;23.95;10.10;;;10.20;60.80;;;;;;6266210;28;20030;-74
2021/11/10 08:02:48;;;;;;;27.08;9.32;;;10.30;60.60;;;;;;6267737;28;20036;-75
2021/11/10 08:05:49;;;;;;;22.48;9.82;;;10.40;60.30;;;;;;6267145;28;20100;-77
2021/11/10 08:08:50;;;;;;;23.95;8.75;;;10.50;60.10;;;;;;6269227;28;20043;-75
2021/11/10 08:11:51;;;;;;;22.90;8.63;;;10.60;60.00;;;;;;6269159;28;20043;-75
2021/11/10 08:14:52;;;;;;;23.05;10.02;;;10.70;59.80;;;;;;6259947;28;20061;-74
2021/11/10 08:17:53;;;;;;;29.60;9.20;;;10.80;59.60;;;;;;6258429;28;20116;-75
2021/11/10 08:20:55;;;;;;;26.10;8.60;;;10.90;59.30;;;;;;6258044;28;20476;-74
2021/11/10 08:23:56;;;;;;;18.92;8.88;;;10.90;59.10;;;;;;6259581;28;20116;-75
2021/11/10 08:26:57;;;;;;;22.70;10.63;;;11.00;58.90;;;;;;6258950;28;20032;-75
2021/11/10 08:29:59;;;;;;;24.45;9.82;;;11.10;58.90;;;;;;6258658;28;20141;-74
2021/11/10 08:33:00;;;;;;;22.83;8.65;;;11.20;58.60;;;;;;6258708;28;20117;-74
2021/11/10 08:36:01;;;;;;;25.65;9.85;;;11.40;58.40;;;;;;6256120;28;20088;-75
2021/11/10 08:39:03;;;;;;;28.05;9.38;;;11.50;57.70;;;;;;6260270;28;20025;-74
2021/11/10 08:42:08;;;;;;;24.95;10.35;;;11.60;57.70;;;;;;6257076;28;20029;-75
2021/11/10 08:45:16;;;;;;;28.92;10.52;;;11.70;57.50;;;;;;6266556;28;20028;-74
2021/11/10 08:48:18;;;;;;;19.45;10.65;;;11.90;57.30;;;;;;6266134;28;20469;-74
2021/11/10 08:51:20;;;;;;;23.92;10.52;;;12.10;56.90;;;;;;6258104;28;20115;-74
2021/11/10 08:54:25;;;;;;;23.67;10.68;;;12.20;56.60;;;;;;6267530;28;20029;-75
2021/11/10 08:57:26;;;;;;;28.77;10.70;;;12.40;56.20;;;;;;6252639;28;20027;-75
2021/11/10 09:00:30;;;;;;;25.92;10.63;;;12.40;56.10;;;;;;6267094;28;20029;-75
2021/11/10 09:03:31;;;;;;;30.25;10.63;;;12.50;55.90;;;;;;6267897;28;20108;-74
2021/11/10 09:06:32;;;;;;;27.10;9.85;;;12.50;55.90;;;;;;6273351;28;20048;-75
2021/11/10 09:09:33;;;;;;;20.67;10.10;;;12.50;55.70;;;;;;6267049;28;20055;-74
2021/11/10 09:12:34;;;;;;;27.45;10.48;;;12.50;55.60;;;;;;6269270;28;20502;-74
2021/11/10 09:15:35;;;;;;;30.13;11.18;;;12.40;55.30;;;;;;6258021;28;20355;-74
2021/11/10 09:18:36;;;;;;;30.25;12.73;;;12.40;55.20;;;;;;6259460;28;20170;-74
2021/11/10 09:21:38;;;;;;;41.25;12.20;;;12.40;55.30;;;;;;6262455;28;20029;-75
2021/11/10 09:24:39;;;;;;;28.30;11.52;;;12.40;55.40;;;;;;6258062;28;20484;-75
2021/11/10 09:27:40;;;;;;;24.73;11.55;;;12.50;55.40;;;;;;6263147;28;20040;-75
2021/11/10 09:30:44;;;;;;;25.42;10.27;;;12.50;55.10;;;;;;6259215;28;20041;-75
2021/11/10 09:33:47;;;;;;;23.23;10.63;;;12.60;54.90;;;;;;6260736;28;20075;-74
2021/11/10 09:36:48;;;;;;;30.50;11.88;;;12.70;54.90;;;;;;6263311;28;20040;-74
2021/11/10 09:39:49;;;;;;;25.95;10.55;;;12.90;54.80;;;;;;6268611;28;20120;-76
2021/11/10 09:42:50;;;;;;;24.83;10.52;;;13.10;54.50;;;;;;6244960;28;20025;-75
2021/11/10 09:45:51;;;;;;;28.00;11.43;;;13.40;54.10;;;;;;6273397;28;20366;-75
2021/11/10 09:48:53;;;;;;;26.35;12.18;;;13.60;53.70;;;;;;6272681;28;20044;-75
2021/11/10 09:51:54;;;;;;;34.95;13.32;;;13.90;53.20;;;;;;6271282;28;20034;-75
2021/11/10 09:54:55;;;;;;;27.98;11.25;;;14.30;52.40;;;;;;6272758;28;20029;-74
2021/11/10 09:57:58;;;;;;;33.50;16.38;;;14.70;51.40;;;;;;6253656;28;20048;-75
2021/11/10 10:01:04;;;;;;;31.35;13.68;;;15.00;50.90;;;;;;6271033;28;20032;-75
2021/11/10 10:04:07;;;;;;;30.98;15.13;;;15.30;50.20;;;;;;6270417;28;20051;-74
2021/11/10 10:07:09;;;;;;;25.10;12.00;;;15.50;49.50;;;;;;6271063;28;20454;-75
2021/11/10 10:10:10;;;;;;;29.48;13.00;;;15.50;49.00;;;;;;6272840;28;20025;-75
2021/11/10 10:13:12;;;;;;;30.58;12.27;;;15.60;48.90;;;;;;6266256;28;20031;-74
2021/11/10 10:16:22;;;;;;;34.67;11.93;;;15.60;48.50;;;;;;6258351;28;20025;-75
2021/11/10 10:19:36;;;;;;;32.08;12.60;;;15.70;48.20;;;;;;6255021;28;20248;-75
2021/11/10 10:22:45;;;;;;;25.77;10.75;;;15.80;48.30;;;;;;6259190;28;20159;-75
2021/11/10 10:25:45;;;;;;;18.42;9.13;;;16.00;48.20;;;;;;6265223;28;20328;-74
2021/11/10 10:28:55;;;;;;;20.48;9.85;;;16.20;47.50;;;;;;6260684;28;20025;-75
2021/11/10 10:32:02;;;;;;;18.67;9.48;;;16.30;47.10;;;;;;6244819;28;20175;-75
2021/11/10 10:35:31;;;;;;;50.05;18.35;;;16.50;47.00;;;;;;6258380;28;20040;-75
2021/11/10 10:38:44;;;;;;;22.53;9.87;;;16.70;46.70;;;;;;6265571;28;20321;-75
2021/11/10 10:41:48;;;;;;;23.27;9.45;;;17.00;45.40;;;;;;6248765;28;20378;-74
2021/11/10 10:44:49;;;;;;;25.40;9.75;;;17.10;45.40;;;;;;6259031;28;20123;-74
2021/11/10 10:48:07;;;;;;;35.55;15.18;;;17.20;45.20;;;;;;6263226;28;20089;-75
2021/11/10 10:51:13;;;;;;;25.67;11.25;;;17.40;44.90;;;;;;6277222;28;20024;-73
2021/11/10 10:54:14;;;;;;;28.05;9.45;;;17.70;44.50;;;;;;6266323;28;20025;-74
2021/11/10 10:57:20;;;;;;;16.80;8.57;;;18.00;44.00;;;;;;6264815;28;20037;-75
2021/11/10 11:00:21;;;;;;;36.10;18.08;;;18.30;43.60;;;;;;6245611;28;20119;-75
2021/11/10 11:03:24;;;;;;;61.53;26.73;;;18.70;42.50;;;;;;6284327;28;20040;-75
2021/11/10 11:06:39;;;;;;;38.53;16.95;;;18.80;41.90;;;;;;6283033;28;20357;-75
2021/11/10 11:09:43;;;;;;;37.63;15.20;;;18.70;42.00;;;;;;6263854;28;20099;-75
2021/11/10 11:12:53;;;;;;;24.08;11.68;;;18.80;41.90;;;;;;6280727;28;20047;-75
2021/11/10 11:16:05;;;;;;;34.72;14.45;;;18.70;42.10;;;;;;6258349;28;20411;-75
2021/11/10 11:19:11;;;;;;;25.90;11.38;;;18.60;42.40;;;;;;6261329;28;20066;-74
2021/11/10 11:22:12;;;;;;;28.20;12.27;;;18.70;42.20;;;;;;6260635;28;20052;-75
2021/11/10 11:25:16;;;;;;;19.02;10.90;;;19.00;42.10;;;;;;6255882;28;20093;-75
2021/11/10 11:28:17;;;;;;;26.42;12.25;;;19.30;41.50;;;;;;6257329;28;20020;-75
2021/11/10 11:31:33;;;;;;;22.27;10.85;;;19.70;40.90;;;;;;6258160;28;20399;-75
2021/11/10 11:34:55;;;;;;;22.52;9.45;;;19.70;40.20;;;;;;6257857;28;20015;-76
2021/11/10 11:38:09;;;;;;;31.23;12.63;;;19.60;40.10;;;;;;6256404;28;20020;-77
2021/11/10 11:41:15;;;;;;;32.45;10.95;;;19.70;40.20;;;;;;6257064;28;20040;-74
2021/11/10 11:44:19;;;;;;;24.88;9.82;;;19.80;39.80;;;;;;6248477;28;20057;-79
2021/11/10 11:47:23;;;;;;;22.33;10.30;;;19.60;39.80;;;;;;6267840;28;20036;-75
2021/11/10 11:50:24;;;;;;;29.30;11.45;;;19.50;40.20;;;;;;6267745;28;20028;-75
2021/11/10 11:53:25;;;;;;;20.98;9.23;;;19.40;40.40;;;;;;6264900;28;20104;-75
2021/11/10 11:56:27;;;;;;;21.35;10.27;;;19.20;40.70;;;;;;6270929;28;20025;-74
2021/11/10 11:59:28;;;;;;;20.58;9.43;;;19.10;41.00;;;;;;6266822;28;20408;-74
2021/11/10 12:02:44;;;;;;;24.13;10.88;;;19.00;41.30;;;;;;6269011;28;20104;-74
2021/11/10 12:05:47;;;;;;;28.50;12.15;;;18.90;41.60;;;;;;6269753;28;20036;-74
2021/11/10 12:08:56;;;;;;;39.47;17.27;;;18.80;41.40;;;;;;6270921;28;20036;-74
2021/11/10 12:11:59;;;;;;;19.52;9.52;;;18.80;41.60;;;;;;6269026;28;20074;-74
2021/11/10 12:15:00;;;;;;;20.65;8.40;;;18.80;41.50;;;;;;6263706;28;20017;-74
2021/11/10 12:18:10;;;;;;;25.55;12.23;;;18.90;41.50;;;;;;6264444;28;20079;-74
2021/11/10 12:21:12;;;;;;;22.67;10.98;;;18.90;41.50;;;;;;6267347;28;20021;-74
2021/11/10 12:24:18;;;;;;;31.88;11.63;;;18.90;41.50;;;;;;6265708;28;20523;-74
2021/11/10 12:27:32;;;;;;;33.97;11.35;;;18.80;41.60;;;;;;6267772;28;20051;-74
2021/11/10 12:30:42;;;;;;;16.83;8.63;;;18.90;41.60;;;;;;6265616;28;20050;-75
2021/11/10 12:33:44;;;;;;;19.67;9.10;;;18.80;41.60;;;;;;6265346;28;20028;-75
2021/11/10 12:36:51;;;;;;;18.65;8.27;;;18.80;41.60;;;;;;6271176;28;20017;-74
2021/11/10 12:40:24;;;;;;;18.60;8.65;;;18.70;41.60;;;;;;6254378;28;20025;-74
2021/11/10 12:43:27;;;;;;;19.60;8.48;;;18.60;41.60;;;;;;6266651;28;20110;-74
2021/11/10 12:46:28;;;;;;;18.05;8.13;;;18.60;41.70;;;;;;6269840;28;20110;-75
2021/11/10 12:49:30;;;;;;;21.05;8.52;;;18.50;41.60;;;;;;6247515;28;20047;-74
2021/11/10 12:52:44;;;;;;;17.20;7.55;;;18.40;41.70;;;;;;6265813;28;20091;-76
2021/11/10 12:55:51;;;;;;;17.40;7.95;;;18.40;41.90;;;;;;6264662;28;20040;-74
2021/11/10 12:59:01;;;;;;;20.45;8.57;;;18.40;42.50;;;;;;6264907;28;20087;-75
2021/11/10 13:02:16;;;;;;;22.15;8.23;;;18.30;42.00;;;;;;6265278;28;20040;-75
2021/11/10 13:05:38;;;;;;;18.67;7.28;;;18.20;42.20;;;;;;6269844;28;20025;-75
2021/11/10 13:08:52;;;;;;;20.40;8.90;;;18.20;42.30;;;;;;6266188;28;20039;-75
2021/11/10 13:11:54;;;;;;;17.27;8.13;;;18.30;42.40;;;;;;6268000;28;20044;-75
2021/11/10 13:14:57;;;;;;;18.58;8.63;;;18.20;42.30;;;;;;6259843;28;20108;-76
2021/11/10 13:18:14;;;;;;;28.27;10.77;;;18.20;42.30;;;;;;6259879;28;20025;-75
2021/11/10 13:21:15;;;;;;;25.00;10.65;;;18.20;42.40;;;;;;6262930;28;20326;-74
2021/11/10 13:24:16;;;;;;;21.58;8.82;;;18.20;43.00;;;;;;6259732;28;20076;-74
2021/11/10 13:27:44;;;;;;;17.83;7.65;;;18.20;42.50;;;;;;6261684;28;20041;-75
2021/11/10 13:30:49;;;;;;;16.85;7.32;;;18.20;42.30;;;;;;6249011;28;20056;-75
2021/11/10 13:33:49;;;;;;;16.58;7.32;;;18.10;42.40;;;;;;6246124;28;20115;-76
2021/11/10 13:36:57;;;;;;;16.60;6.47;;;18.10;42.30;;;;;;6245642;28;20064;-75
2021/11/10 13:39:58;;;;;;;16.42;6.90;;;18.10;42.40;;;;;;6231389;28;20029;-74
2021/11/10 13:42:59;;;;;;;17.20;6.40;;;18.10;42.30;;;;;;6249830;28;20090;-74
2021/11/10 13:46:01;;;;;;;12.43;5.65;;;18.20;42.20;;;;;;6256884;28;20060;-75
2021/11/10 13:49:25;;;;;;;13.68;5.95;;;18.10;41.80;;;;;;6241992;28;20045;-75
2021/11/10 13:52:26;;;;;;;13.20;5.18;;;18.00;41.70;;;;;;6253090;28;20044;-74
2021/11/10 13:55:28;;;;;;;15.50;6.53;;;17.90;41.60;;;;;;6250377;28;20044;-74
2021/11/10 13:58:31;;;;;;;16.60;6.15;;;17.90;41.70;;;;;;6239135;28;20041;-75
2021/11/10 14:01:32;;;;;;;13.88;5.88;;;17.80;41.70;;;;;;6245730;28;20068;-77
2021/11/10 14:04:36;;;;;;;10.82;5.47;;;17.70;41.70;;;;;;6268267;28;20032;-74
2021/11/10 14:07:43;;;;;;;36.55;16.23;;;17.70;41.80;;;;;;6256736;28;20029;-75
2021/11/10 14:10:43;;;;;;;15.45;6.55;;;17.70;41.80;;;;;;6255024;28;20028;-73
2021/11/10 14:13:53;;;;;;;17.75;6.40;;;17.80;41.70;;;;;;6243531;28;20032;-75
2021/11/10 14:16:54;;;;;;;18.08;6.22;;;17.80;41.70;;;;;;6243232;28;20060;-74
2021/11/10 14:20:02;;;;;;;12.50;5.65;;;17.70;41.70;;;;;;6239169;28;20021;-75
2021/11/10 14:23:05;;;;;;;13.43;6.47;;;17.70;41.70;;;;;;6235816;28;20065;-75
2021/11/10 14:26:12;;;;;;;12.75;6.55;;;17.70;41.70;;;;;;6211669;28;20196;-75
2021/11/10 14:29:14;;;;;;;14.50;7.45;;;17.70;41.70;;;;;;6221101;28;20048;-74
2021/11/10 14:32:15;;;;;;;16.23;6.40;;;17.80;41.80;;;;;;6211232;28;20204;-74
2021/11/10 14:35:18;;;;;;;11.57;6.32;;;17.70;41.80;;;;;;6194710;28;20075;-75
2021/11/10 14:38:23;;;;;;;18.30;6.63;;;17.70;42.00;;;;;;6209475;28;20112;-76
2021/11/10 14:41:39;;;;;;;15.00;7.13;;;17.70;42.00;;;;;;6194511;28;20076;-76
2021/11/10 14:44:41;;;;;;;19.13;7.53;;;17.70;42.10;;;;;;6221338;28;20044;-75
2021/11/10 14:47:58;;;;;;;12.32;6.55;;;17.70;42.30;;;;;;6210296;28;20033;-75
2021/11/10 14:51:01;;;;;;;12.15;5.78;;;17.70;42.40;;;;;;6219559;28;20155;-75
2021/11/10 14:54:10;;;;;;;19.88;6.13;;;17.70;42.60;;;;;;6219302;28;20506;-75
2021/11/10 14:57:13;;;;;;;16.17;6.53;;;17.70;42.50;;;;;;6222902;28;20071;-75
2021/11/10 15:00:14;;;;;;;13.48;5.80;;;17.50;42.50;;;;;;6232668;28;20089;-75
2021/11/10 15:03:24;;;;;;;15.05;6.05;;;17.50;42.60;;;;;;6226519;28;20029;-74
2021/11/10 15:06:29;;;;;;;13.18;6.13;;;17.50;42.70;;;;;;6235127;28;20040;-74
2021/11/10 15:09:30;;;;;;;17.13;6.93;;;17.40;42.60;;;;;;6237683;28;20162;-75
2021/11/10 15:12:31;;;;;;;16.88;6.03;;;17.40;42.60;;;;;;6232944;28;20331;-75
2021/11/10 15:15:42;;;;;;;15.00;5.07;;;17.30;42.60;;;;;;6236503;28;20119;-75
2021/11/10 15:18:44;;;;;;;13.57;6.38;;;17.20;42.70;;;;;;6231352;28;20040;-75
2021/11/10 15:21:45;;;;;;;16.55;6.25;;;17.10;42.80;;;;;;6238820;28;20255;-75
2021/11/10 15:24:46;;;;;;;12.52;5.78;;;17.10;42.90;;;;;;6231013;28;20789;-75
2021/11/10 15:27:49;;;;;;;14.52;5.78;;;17.00;42.90;;;;;;6232659;28;20045;-75
2021/11/10 15:30:56;;;;;;;11.07;5.75;;;17.00;43.10;;;;;;6249851;28;20145;-75
2021/11/10 15:33:57;;;;;;;13.48;6.50;;;16.90;43.30;;;;;;6258691;28;20029;-76
2021/11/10 15:37:00;;;;;;;13.18;5.90;;;16.90;44.00;;;;;;6258574;28;20025;-76
2021/11/10 15:40:01;;;;;;;11.35;5.32;;;16.80;43.40;;;;;;6260064;28;20017;-76
2021/11/10 15:43:02;;;;;;;12.35;5.60;;;16.80;43.40;;;;;;6249582;28;20431;-76
2021/11/10 15:46:07;;;;;;;15.65;6.20;;;16.70;43.50;;;;;;6271853;28;20029;-75